Time;durP1;ratioP1;P1;durP2;ratioP2;P2;SDS_P1;SDS_P2;PMS_P1;PMS_P2;Temp;Humidity;BMP_temperature;BMP_pressure;BME280_temperature;BME280_humidity;BME280_pressure;Samples;Min_cycle;Max_cycle;Signal;HPM_P1;HPM_P2
2023/07/12 00:00:27;;;;;;;;;;;;;;;;;;5007417;28;92750;-63
2023/07/12 00:02:53;;;;;;;;;;;;;;;;;;5005228;28;93405;-64
2023/07/12 00:05:18;;;;;;;;;;;;;;;;;;5001934;28;92492;-64
2023/07/12 00:07:45;;;;;;;;;;;;;;;;;;5005641;28;92972;-65
2023/07/12 00:10:17;;;;;;;;;;;;;;;;;;5001105;28;92880;-64
2023/07/12 00:12:43;;;;;;;;;;;;;;;;;;5001113;28;92960;-65
2023/07/12 00:15:10;;;;;;;;;;;;;;;;;;5002796;28;93520;-62
2023/07/12 00:17:35;;;;;;;;;;;;;;;;;;5005232;28;92401;-63
2023/07/12 00:20:00;;;;;;;;;;;;;;;;;;5004781;28;92392;-67
2023/07/12 00:22:26;;;;;;;;;;;;;;;;;;5006143;28;92913;-68
2023/07/12 00:24:51;;;;;;;;;;;;;;;;;;4998688;28;92406;-64
2023/07/12 00:27:16;;;;;;;;;;;;;;;;;;5004607;28;92947;-64
2023/07/12 00:29:41;;;;;;;;;;;;;;;;;;5002889;28;92304;-66
2023/07/12 00:32:08;;;;;;;;;;;;;;;;;;5005558;28;92622;-65
2023/07/12 00:34:33;;;;;;;;;;;;;;;;;;5004110;28;93757;-66
2023/07/12 00:36:58;;;;;;;;;;;;;;;;;;4996219;28;92902;-67
2023/07/12 00:39:23;;;;;;;;;;;;;;;;;;5003741;28;94903;-68
2023/07/12 00:42:11;;;;;;;;;;;;;;;;;;5004229;28;92831;-67
2023/07/12 00:44:43;;;;;;;;;;;;;;;;;;5005861;28;92215;-66
2023/07/12 00:47:11;;;;;;;;;;;;;;;;;;5004838;28;92731;-63
2023/07/12 00:49:36;;;;;;;;;;;;;;;;;;5003445;28;92329;-63
2023/07/12 00:52:10;;;;;;;;;;;;;;;;;;5004322;28;92874;-63
2023/07/12 00:54:47;;;;;;;;;;;;;;;;;;4999952;28;94310;-67
2023/07/12 00:57:13;;;;;;;;;;;;;;;;;;5004253;28;92102;-64
2023/07/12 00:59:38;;;;;;;;;;;;;;;;;;5002652;28;92875;-65
2023/07/12 01:02:04;;;;;;;;;;;;;;;;;;5003577;28;92241;-63
2023/07/12 01:04:32;;;;;;;;;;;;;;;;;;5003673;28;93666;-64
2023/07/12 01:06:58;;;;;;;;;;;;;;;;;;5006566;28;93310;-66
2023/07/12 01:09:23;;;;;;;;;;;;;;;;;;5003858;28;93031;-62
2023/07/12 01:11:49;;;;;;;;;;;;;;;;;;4997662;28;92689;-66
2023/07/12 01:14:15;;;;;;;;;;;;;;;;;;5002895;28;93283;-65
2023/07/12 01:16:42;;;;;;;;;;;;;;;;;;5000692;28;92298;-62
2023/07/12 01:19:07;;;;;;;;;;;;;;;;;;5002726;28;93005;-65
2023/07/12 01:21:33;;;;;;;;;;;;;;;;;;5004060;28;93087;-66
2023/07/12 01:23:59;;;;;;;;;;;;;;;;;;5002384;28;93133;-66
2023/07/12 01:26:25;;;;;;;;;;;;;;;;;;5005081;28;92818;-64
2023/07/12 01:28:56;;;;;;;;;;;;;;;;;;5001827;28;93796;-65
2023/07/12 01:31:22;;;;;;;;;;;;;;;;;;4993392;28;94395;-64
2023/07/12 01:33:47;;;;;;;;;;;;;;;;;;5001251;28;93058;-65
2023/07/12 01:36:13;;;;;;;;;;;;;;;;;;5000906;28;93245;-64
2023/07/12 01:38:38;;;;;;;;;;;;;;;;;;5000945;28;92487;-64
2023/07/12 01:41:03;;;;;;;;;;;;;;;;;;5000908;28;93186;-65
2023/07/12 01:43:28;;;;;;;;;;;;;;;;;;5001047;28;92683;-63
2023/07/12 01:45:53;;;;;;;;;;;;;;;;;;5000807;28;92633;-63
2023/07/12 01:48:19;;;;;;;;;;;;;;;;;;5003995;28;93121;-64
2023/07/12 01:50:44;;;;;;;;;;;;;;;;;;5001307;28;93032;-65
2023/07/12 01:53:09;;;;;;;;;;;;;;;;;;5000999;28;93602;-63
2023/07/12 01:55:35;;;;;;;;;;;;;;;;;;5001232;28;92376;-63
2023/07/12 01:58:00;;;;;;;;;;;;;;;;;;4997726;28;92634;-62
2023/07/12 02:00:25;;;;;;;;;;;;;;;;;;5001428;28;92312;-64
2023/07/12 02:02:50;;;;;;;;;;;;;;;;;;5000802;28;93071;-64
2023/07/12 02:05:15;;;;;;;;;;;;;;;;;;5000833;28;92991;-63
2023/07/12 02:07:41;;;;;;;;;;;;;;;;;;5001372;28;93027;-63
2023/07/12 02:10:08;;;;;;;;;;;;;;;;;;5003560;28;91554;-63
2023/07/12 02:12:33;;;;;;;;;;;;;;;;;;5001450;28;93832;-63
2023/07/12 02:14:58;;;;;;;;;;;;;;;;;;4999847;28;93713;-63
2023/07/12 02:17:23;;;;;;;;;;;;;;;;;;4999692;28;93880;-63
2023/07/12 02:19:48;;;;;;;;;;;;;;;;;;4983776;28;93530;-63
2023/07/12 02:22:13;;;;;;;;;;;;;;;;;;5001095;28;93159;-64
2023/07/12 02:24:39;;;;;;;;;;;;;;;;;;4998786;28;93096;-64
2023/07/12 02:27:04;;;;;;;;;;;;;;;;;;4996179;28;93253;-65
2023/07/12 02:29:30;;;;;;;;;;;;;;;;;;4996082;28;92819;-63
2023/07/12 02:31:55;;;;;;;;;;;;;;;;;;5000403;28;93065;-64
2023/07/12 02:34:20;;;;;;;;;;;;;;;;;;4992637;28;91782;-64
2023/07/12 02:36:46;;;;;;;;;;;;;;;;;;5000067;28;92348;-65
2023/07/12 02:39:11;;;;;;;;;;;;;;;;;;4997649;28;92757;-65
2023/07/12 02:41:36;;;;;;;;;;;;;;;;;;4998076;28;93766;-65
2023/07/12 02:44:01;;;;;;;;;;;;;;;;;;4994365;28;93129;-65
2023/07/12 02:46:27;;;;;;;;;;;;;;;;;;4994193;28;93700;-63
2023/07/12 02:48:52;;;;;;;;;;;;;;;;;;4996808;28;92335;-65
2023/07/12 02:51:17;;;;;;;;;;;;;;;;;;4997249;28;92683;-65
2023/07/12 02:53:42;;;;;;;;;;;;;;;;;;5001732;28;93833;-65
2023/07/12 02:56:08;;;;;;;;;;;;;;;;;;4999253;28;93667;-65
2023/07/12 02:58:33;;;;;;;;;;;;;;;;;;4985030;28;94817;-65
2023/07/12 03:00:59;;;;;;;;;;;;;;;;;;4999080;28;93570;-64
2023/07/12 03:03:24;;;;;;;;;;;;;;;;;;4999693;28;92877;-64
2023/07/12 03:05:50;;;;;;;;;;;;;;;;;;4994150;28;94668;-64
2023/07/12 03:08:15;;;;;;;;;;;;;;;;;;4995189;28;92342;-64
2023/07/12 03:10:40;;;;;;;;;;;;;;;;;;5000475;28;92629;-63
2023/07/12 03:13:05;;;;;;;;;;;;;;;;;;5001458;28;92882;-64
2023/07/12 03:15:30;;;;;;;;;;;;;;;;;;5004064;28;92692;-64
2023/07/12 03:17:56;;;;;;;;;;;;;;;;;;4999315;28;92909;-63
2023/07/12 03:20:21;;;;;;;;;;;;;;;;;;4998381;28;93358;-64
2023/07/12 03:22:46;;;;;;;;;;;;;;;;;;4984085;28;93691;-63
2023/07/12 03:25:11;;;;;;;;;;;;;;;;;;4996568;28;93550;-64
2023/07/12 03:27:36;;;;;;;;;;;;;;;;;;5001114;28;94350;-63
2023/07/12 03:30:02;;;;;;;;;;;;;;;;;;4999256;28;93476;-64
2023/07/12 03:32:27;;;;;;;;;;;;;;;;;;5000696;28;92758;-64
2023/07/12 03:34:53;;;;;;;;;;;;;;;;;;4999098;28;92658;-64
2023/07/12 03:37:18;;;;;;;;;;;;;;;;;;4999397;28;93264;-63
2023/07/12 03:39:44;;;;;;;;;;;;;;;;;;5000762;28;92370;-63
2023/07/12 03:42:09;;;;;;;;;;;;;;;;;;4999234;28;93536;-65
2023/07/12 03:44:34;;;;;;;;;;;;;;;;;;4998377;28;92679;-64
2023/07/12 03:46:59;;;;;;;;;;;;;;;;;;5001223;28;91576;-63
2023/07/12 03:49:24;;;;;;;;;;;;;;;;;;4999699;28;92791;-65
2023/07/12 03:51:50;;;;;;;;;;;;;;;;;;4999841;28;93342;-64
2023/07/12 03:54:15;;;;;;;;;;;;;;;;;;4999119;28;94218;-64
2023/07/12 03:56:40;;;;;;;;;;;;;;;;;;5004701;28;94683;-64
2023/07/12 03:59:08;;;;;;;;;;;;;;;;;;5001336;28;95200;-63
2023/07/12 04:01:33;;;;;;;;;;;;;;;;;;4996040;28;93956;-63
2023/07/12 04:03:58;;;;;;;;;;;;;;;;;;4996143;28;93998;-63
2023/07/12 04:06:23;;;;;;;;;;;;;;;;;;5000213;28;93053;-63
2023/07/12 04:08:49;;;;;;;;;;;;;;;;;;5001883;28;92519;-64
2023/07/12 04:11:36;;;;;;;;;;;;;;;;;;4996200;28;91909;-64
2023/07/12 04:14:02;;;;;;;;;;;;;;;;;;4998646;28;93251;-63
2023/07/12 04:16:28;;;;;;;;;;;;;;;;;;5000079;28;93803;-63
2023/07/12 04:18:54;;;;;;;;;;;;;;;;;;5000647;28;94980;-63
2023/07/12 04:21:19;;;;;;;;;;;;;;;;;;4999804;28;92886;-64
2023/07/12 04:23:48;;;;;;;;;;;;;;;;;;4984565;28;94068;-63
2023/07/12 04:26:13;;;;;;;;;;;;;;;;;;4997777;28;92962;-63
2023/07/12 04:28:39;;;;;;;;;;;;;;;;;;4999184;28;92654;-62
2023/07/12 04:31:09;;;;;;;;;;;;;;;;;;4997364;28;92640;-63
2023/07/12 04:33:35;;;;;;;;;;;;;;;;;;4999000;28;93153;-64
2023/07/12 04:36:04;;;;;;;;;;;;;;;;;;5001444;28;92768;-64
2023/07/12 04:38:29;;;;;;;;;;;;;;;;;;4981259;28;95830;-64
2023/07/12 04:40:55;;;;;;;;;;;;;;;;;;4985297;28;92344;-65
2023/07/12 04:43:20;;;;;;;;;;;;;;;;;;5000969;28;94000;-65
2023/07/12 04:45:46;;;;;;;;;;;;;;;;;;4998797;28;93732;-64
2023/07/12 04:48:11;;;;;;;;;;;;;;;;;;5000935;28;92860;-63
2023/07/12 04:50:36;;;;;;;;;;;;;;;;;;4998219;28;92895;-64
2023/07/12 04:53:02;;;;;;;;;;;;;;;;;;4994365;28;92812;-64
2023/07/12 04:55:28;;;;;;;;;;;;;;;;;;4998908;28;94147;-64
2023/07/12 04:57:54;;;;;;;;;;;;;;;;;;4996866;28;94327;-64
2023/07/12 05:00:19;;;;;;;;;;;;;;;;;;4998868;28;91900;-63
2023/07/12 05:02:46;;;;;;;;;;;;;;;;;;5002325;28;92741;-63
2023/07/12 05:05:11;;;;;;;;;;;;;;;;;;5000583;28;92653;-64
2023/07/12 05:07:37;;;;;;;;;;;;;;;;;;4998362;28;93792;-64
2023/07/12 05:10:03;;;;;;;;;;;;;;;;;;4999800;28;92853;-64
2023/07/12 05:12:29;;;;;;;;;;;;;;;;;;4998376;28;92662;-64
2023/07/12 05:14:54;;;;;;;;;;;;;;;;;;4998116;28;94318;-64
2023/07/12 05:17:19;;;;;;;;;;;;;;;;;;4997861;28;92794;-64
2023/07/12 05:19:44;;;;;;;;;;;;;;;;;;4996510;28;92623;-64
2023/07/12 05:22:09;;;;;;;;;;;;;;;;;;5000805;28;92356;-64
2023/07/12 05:24:34;;;;;;;;;;;;;;;;;;5000795;28;91964;-63
2023/07/12 05:27:00;;;;;;;;;;;;;;;;;;4999906;28;92703;-64
2023/07/12 05:29:25;;;;;;;;;;;;;;;;;;4995744;28;93486;-63
2023/07/12 05:31:50;;;;;;;;;;;;;;;;;;4981415;28;94138;-63
2023/07/12 05:34:15;;;;;;;;;;;;;;;;;;5000094;28;93365;-64
2023/07/12 05:36:41;;;;;;;;;;;;;;;;;;4999588;28;93250;-63
2023/07/12 05:39:06;;;;;;;;;;;;;;;;;;4997786;28;92315;-64
2023/07/12 05:41:31;;;;;;;;;;;;;;;;;;4998954;28;93509;-64
2023/07/12 05:43:56;;;;;;;;;;;;;;;;;;5002547;28;92759;-64
2023/07/12 05:46:22;;;;;;;;;;;;;;;;;;4997370;28;92856;-64
2023/07/12 05:48:47;;;;;;;;;;;;;;;;;;4998888;28;92104;-64
2023/07/12 05:51:12;;;;;;;;;;;;;;;;;;5000461;28;93072;-63
2023/07/12 05:53:37;;;;;;;;;;;;;;;;;;4998963;28;92687;-65
2023/07/12 05:56:04;;;;;;;;;;;;;;;;;;4997860;28;93999;-64
2023/07/12 05:58:29;;;;;;;;;;;;;;;;;;4996092;28;92352;-64
2023/07/12 06:00:58;;;;;;;;;;;;;;;;;;4998169;28;92994;-64
2023/07/12 06:03:24;;;;;;;;;;;;;;;;;;4999176;28;94156;-65
2023/07/12 06:05:50;;;;;;;;;;;;;;;;;;5000936;28;92568;-65
2023/07/12 06:08:15;;;;;;;;;;;;;;;;;;4978614;28;95251;-64
2023/07/12 06:10:42;;;;;;;;;;;;;;;;;;4997715;28;93585;-65
2023/07/12 06:13:09;;;;;;;;;;;;;;;;;;4999748;28;92684;-65
2023/07/12 06:15:34;;;;;;;;;;;;;;;;;;4996422;28;92976;-72
2023/07/12 06:17:59;;;;;;;;;;;;;;;;;;4997326;28;92812;-63
2023/07/12 06:20:25;;;;;;;;;;;;;;;;;;4998603;28;93284;-66
2023/07/12 06:22:50;;;;;;;;;;;;;;;;;;4998365;28;93169;-65
2023/07/12 06:25:15;;;;;;;;;;;;;;;;;;4998359;28;92982;-65
2023/07/12 06:27:40;;;;;;;;;;;;;;;;;;4999176;28;92873;-66
2023/07/12 06:30:06;;;;;;;;;;;;;;;;;;4996515;28;92215;-65
2023/07/12 06:32:31;;;;;;;;;;;;;;;;;;4996855;28;92573;-65
2023/07/12 06:34:56;;;;;;;;;;;;;;;;;;4997123;28;93277;-64
2023/07/12 06:37:22;;;;;;;;;;;;;;;;;;4999617;28;91976;-64
2023/07/12 06:39:47;;;;;;;;;;;;;;;;;;5002626;28;92885;-64
2023/07/12 06:42:12;;;;;;;;;;;;;;;;;;4997222;28;93071;-63
2023/07/12 06:44:37;;;;;;;;;;;;;;;;;;4999257;28;93522;-66
2023/07/12 06:47:02;;;;;;;;;;;;;;;;;;4994275;28;93248;-66
2023/07/12 06:49:28;;;;;;;;;;;;;;;;;;5002228;28;92560;-67
2023/07/12 06:51:53;;;;;;;;;;;;;;;;;;4995522;28;92619;-65
2023/07/12 06:54:18;;;;;;;;;;;;;;;;;;4992475;28;92817;-64
2023/07/12 06:56:44;;;;;;;;;;;;;;;;;;4996284;28;92621;-65
2023/07/12 06:59:09;;;;;;;;;;;;;;;;;;4999179;28;92690;-64
2023/07/12 07:01:35;;;;;;;;;;;;;;;;;;4998081;28;92413;-64
2023/07/12 07:04:00;;;;;;;;;;;;;;;;;;4997819;28;92717;-65
2023/07/12 07:06:25;;;;;;;;;;;;;;;;;;5002415;28;93307;-64
2023/07/12 07:08:51;;;;;;;;;;;;;;;;;;4998946;28;93752;-69
2023/07/12 07:11:16;;;;;;;;;;;;;;;;;;5001165;28;92299;-65
2023/07/12 07:13:41;;;;;;;;;;;;;;;;;;4999439;28;93099;-65
2023/07/12 07:16:06;;;;;;;;;;;;;;;;;;5001367;28;92388;-65
2023/07/12 07:18:32;;;;;;;;;;;;;;;;;;5001090;28;93544;-64
2023/07/12 07:20:58;;;;;;;;;;;;;;;;;;5001232;28;93144;-66
2023/07/12 07:23:23;;;;;;;;;;;;;;;;;;5002529;28;94994;-65
2023/07/12 07:25:48;;;;;;;;;;;;;;;;;;5004637;28;92395;-65
2023/07/12 07:28:14;;;;;;;;;;;;;;;;;;5003324;28;94123;-65
2023/07/12 07:30:39;;;;;;;;;;;;;;;;;;5001403;28;92309;-65
2023/07/12 07:33:04;;;;;;;;;;;;;;;;;;5005144;28;93881;-65
2023/07/12 07:35:30;;;;;;;;;;;;;;;;;;4984817;28;92385;-66
2023/07/12 07:37:55;;;;;;;;;;;;;;;;;;4997966;28;92864;-66
2023/07/12 07:40:20;;;;;;;;;;;;;;;;;;5000510;28;92659;-65
2023/07/12 07:42:46;;;;;;;;;;;;;;;;;;4997711;28;92836;-65
2023/07/12 07:45:11;;;;;;;;;;;;;;;;;;5001213;28;93741;-65
2023/07/12 07:47:37;;;;;;;;;;;;;;;;;;5002327;28;93642;-65
2023/07/12 07:50:03;;;;;;;;;;;;;;;;;;5001321;28;92676;-65
2023/07/12 07:52:28;;;;;;;;;;;;;;;;;;5003152;28;93267;-65
2023/07/12 07:54:53;;;;;;;;;;;;;;;;;;5001864;28;92926;-65
2023/07/12 07:57:20;;;;;;;;;;;;;;;;;;5001928;28;93712;-65
2023/07/12 07:59:45;;;;;;;;;;;;;;;;;;5001483;28;94062;-65
2023/07/12 08:02:11;;;;;;;;;;;;;;;;;;4998617;28;93139;-64
2023/07/12 08:04:39;;;;;;;;;;;;;;;;;;4998849;28;93907;-64
2023/07/12 08:07:05;;;;;;;;;;;;;;;;;;5003220;28;93652;-65
2023/07/12 08:09:30;;;;;;;;;;;;;;;;;;5000620;28;92813;-67
2023/07/12 08:11:56;;;;;;;;;;;;;;;;;;4998049;28;92608;-66
2023/07/12 08:14:21;;;;;;;;;;;;;;;;;;5002562;28;92466;-66
2023/07/12 08:16:48;;;;;;;;;;;;;;;;;;5003531;28;93327;-67
2023/07/12 08:19:13;;;;;;;;;;;;;;;;;;5000482;28;93756;-69
2023/07/12 08:21:38;;;;;;;;;;;;;;;;;;4996665;28;95603;-68
2023/07/12 08:24:04;;;;;;;;;;;;;;;;;;5002303;28;93217;-68
2023/07/12 08:26:29;;;;;;;;;;;;;;;;;;5001744;28;92760;-68
2023/07/12 08:28:54;;;;;;;;;;;;;;;;;;5002181;28;93074;-70
2023/07/12 08:31:19;;;;;;;;;;;;;;;;;;4997472;28;93930;-68
2023/07/12 08:33:45;;;;;;;;;;;;;;;;;;4999315;28;92960;-70
2023/07/12 08:36:10;;;;;;;;;;;;;;;;;;5001675;28;93887;-70
2023/07/12 08:38:36;;;;;;;;;;;;;;;;;;4998704;28;91795;-70
2023/07/12 08:41:07;;;;;;;;;;;;;;;;;;4999012;28;92286;-68
2023/07/12 08:43:33;;;;;;;;;;;;;;;;;;4999908;28;93013;-69
2023/07/12 08:46:03;;;;;;;;;;;;;;;;;;5000728;28;93679;-67
2023/07/12 08:48:28;;;;;;;;;;;;;;;;;;5000766;28;92471;-66
2023/07/12 08:50:53;;;;;;;;;;;;;;;;;;5002451;28;93132;-66
2023/07/12 08:53:20;;;;;;;;;;;;;;;;;;5001867;28;93898;-66
2023/07/12 08:55:46;;;;;;;;;;;;;;;;;;5001046;28;93165;-66
2023/07/12 08:58:11;;;;;;;;;;;;;;;;;;4999061;28;92908;-66
2023/07/12 09:00:37;;;;;;;;;;;;;;;;;;5001419;28;93452;-68
2023/07/12 09:03:02;;;;;;;;;;;;;;;;;;4996510;28;92382;-67
2023/07/12 09:05:28;;;;;;;;;;;;;;;;;;4997578;28;93902;-70
2023/07/12 09:07:53;;;;;;;;;;;;;;;;;;5001321;28;93110;-67
2023/07/12 09:10:26;;;;;;;;;;;;;;;;;;5000960;28;93300;-69
2023/07/12 09:12:51;;;;;;;;;;;;;;;;;;4996339;28;93778;-67
2023/07/12 09:15:16;;;;;;;;;;;;;;;;;;4998329;28;92374;-67
2023/07/12 09:17:43;;;;;;;;;;;;;;;;;;5002535;28;92388;-68
2023/07/12 09:20:25;;;;;;;;;;;;;;;;;;5002479;28;94030;-67
2023/07/12 09:22:51;;;;;;;;;;;;;;;;;;4997633;28;93304;-66
2023/07/12 09:25:33;;;;;;;;;;;;;;;;;;4996595;28;93835;-68
2023/07/12 09:27:59;;;;;;;;;;;;;;;;;;5001743;28;91878;-67
2023/07/12 09:30:25;;;;;;;;;;;;;;;;;;4998060;28;92413;-67
2023/07/12 09:49:32;;;;;;;;;;;;;;;;;;5101537;27;82961;-66
2023/07/12 09:52:17;;;;;;;;;;;;;;;;;;5098156;27;89147;-67
2023/07/12 09:55:11;;;;;;;;;;;;;;;;;;5096874;27;89843;-67
2023/07/12 09:57:55;;;;;;;;;;;;;;;;;;5022381;27;89228;-76
2023/07/12 10:00:23;;;;;;;;;;;;;;;;;;5095309;27;90571;-72
2023/07/12 10:03:04;;;;;;;;;;;;;;;;;;5095016;27;90406;-75
2023/07/12 10:05:29;;;;;;;;;;;;;;;;;;5095116;27;89673;-76
2023/07/12 10:08:00;;;;;;;;;;;;;;;;;;5096698;27;89345;-74
2023/07/12 10:10:31;;;;;;;;;;;;;;;;;;5094123;27;89169;-75
2023/07/12 10:12:59;;;;;;;;;;;;;;;;;;5096228;27;89568;-71
2023/07/12 10:15:29;;;;;;;;;;;;;;;;;;5093985;27;89790;-68
2023/07/12 10:17:54;;;;;;;;;;;;;;;;;;5095515;27;89207;-68
2023/07/12 10:20:23;;;;;;;;;;;;;;;;;;5098240;27;89561;-73
2023/07/12 10:22:49;;;;;;;;;;;;;;;;;;5098903;27;89096;-70
2023/07/12 10:25:14;;;;;;;;;;;;;;;;;;5096464;27;89474;-73
2023/07/12 10:27:46;;;;;;;;;;;;;;;;;;5100950;27;90648;-69
2023/07/12 10:30:23;;;;;;;;;;;;;;;;;;5093257;27;90200;-69
2023/07/12 10:33:07;;;;;;;;;;;;;;;;;;5096695;27;89069;-71
2023/07/12 10:35:41;;;;;;;;;;;;;;;;;;5097926;27;90297;-70
2023/07/12 10:38:13;;;;;;;;;;;;;;;;;;5102433;27;90594;-79
2023/07/12 10:40:42;;;;;;;;;;;;;;;;;;5101439;27;90866;-72
2023/07/12 10:43:31;;;;;;;;;;;;;;;;;;5092272;27;89915;-74
2023/07/12 10:46:00;;;;;;;;;;;;;;;;;;5092927;27;89567;-75
2023/07/12 10:48:26;;;;;;;;;;;;;;;;;;5092033;27;89020;-70
2023/07/12 10:50:53;;;;;;;;;;;;;;;;;;5080222;27;90217;-76
2023/07/12 10:53:26;;;;;;;;;;;;;;;;;;5088075;27;89057;-70
2023/07/12 10:55:54;;;;;;;;;;;;;;;;;;5086742;27;89382;-71
2023/07/12 10:58:19;;;;;;;;;;;;;;;;;;5082251;27;92387;-70
2023/07/12 11:00:50;;;;;;;;;;;;;;;;;;5082749;27;90317;-73
2023/07/12 11:03:17;;;;;;;;;;;;;;;;;;5085246;27;89765;-73
2023/07/12 11:05:45;;;;;;;;;;;;;;;;;;5084979;27;89538;-72
2023/07/12 11:08:36;;;;;;;;;;;;;;;;;;5084382;27;93228;-73
2023/07/12 11:11:22;;;;;;;;;;;;;;;;;;5080150;27;90127;-70
2023/07/12 11:13:52;;;;;;;;;;;;;;;;;;5077000;27;89416;-74
2023/07/12 11:16:18;;;;;;;;;;;;;;;;;;5081203;27;89668;-72
2023/07/12 11:18:48;;;;;;;;;;;;;;;;;;5084498;27;90848;-73
2023/07/12 11:21:25;;;;;;;;;;;;;;;;;;5085715;27;90304;-71
2023/07/12 11:23:50;;;;;;;;;;;;;;;;;;5085242;27;90142;-76
2023/07/12 11:26:19;;;;;;;;;;;;;;;;;;5076954;27;89539;-74
2023/07/12 11:28:44;;;;;;;;;;;;;;;;;;5081794;27;89890;-74
2023/07/12 11:31:26;;;;;;;;;;;;;;;;;;5085707;27;89770;-72
2023/07/12 11:34:12;;;;;;;;;;;;;;;;;;5086223;27;89058;-71
2023/07/12 11:36:39;;;;;;;;;;;;;;;;;;5082995;27;89581;-72
2023/07/12 11:39:11;;;;;;;;;;;;;;;;;;5087676;27;89105;-73
2023/07/12 11:41:37;;;;;;;;;;;;;;;;;;5084155;27;90158;-72
2023/07/12 11:44:04;;;;;;;;;;;;;;;;;;5081923;27;89863;-72
2023/07/12 11:46:30;;;;;;;;;;;;;;;;;;5079983;27;90060;-73
2023/07/12 11:49:02;;;;;;;;;;;;;;;;;;5081303;27;89728;-72
2023/07/12 11:51:34;;;;;;;;;;;;;;;;;;5079182;27;91843;-71
2023/07/12 11:53:59;;;;;;;;;;;;;;;;;;5079600;27;89016;-72
2023/07/12 11:56:25;;;;;;;;;;;;;;;;;;5079298;27;90680;-73
2023/07/12 11:58:51;;;;;;;;;;;;;;;;;;5084229;27;89101;-73
2023/07/12 12:01:17;;;;;;;;;;;;;;;;;;5081558;27;92365;-70
2023/07/12 12:03:43;;;;;;;;;;;;;;;;;;5080275;27;90508;-69
2023/07/12 12:06:12;;;;;;;;;;;;;;;;;;5083122;27;89595;-70
2023/07/12 12:08:38;;;;;;;;;;;;;;;;;;5085183;27;89532;-71
2023/07/12 12:11:03;;;;;;;;;;;;;;;;;;5080954;27;89626;-71
2023/07/12 12:13:30;;;;;;;;;;;;;;;;;;5088151;27;89518;-70
2023/07/12 12:16:02;;;;;;;;;;;;;;;;;;5084452;27;90359;-70
2023/07/12 12:18:28;;;;;;;;;;;;;;;;;;5082504;27;90127;-68
2023/07/12 12:21:01;;;;;;;;;;;;;;;;;;5084813;27;89776;-68
2023/07/12 12:23:28;;;;;;;;;;;;;;;;;;5085633;27;90368;-72
2023/07/12 12:25:57;;;;;;;;;;;;;;;;;;5079082;27;89931;-70
2023/07/12 12:28:22;;;;;;;;;;;;;;;;;;5078419;27;90803;-69
2023/07/12 12:30:56;;;;;;;;;;;;;;;;;;5081381;27;89341;-68
2023/07/12 12:33:24;;;;;;;;;;;;;;;;;;5079563;27;90478;-70
2023/07/12 12:35:55;;;;;;;;;;;;;;;;;;5081605;27;90550;-70
2023/07/12 12:38:23;;;;;;;;;;;;;;;;;;5078250;27;90877;-70
2023/07/12 12:40:53;;;;;;;;;;;;;;;;;;5080125;27;89008;-70
2023/07/12 12:43:18;;;;;;;;;;;;;;;;;;5081995;27;90716;-70
2023/07/12 12:45:43;;;;;;;;;;;;;;;;;;5082677;27;90373;-71
2023/07/12 12:48:12;;;;;;;;;;;;;;;;;;5080489;27;89562;-74
2023/07/12 12:50:37;;;;;;;;;;;;;;;;;;5080191;27;89228;-71
2023/07/12 12:53:04;;;;;;;;;;;;;;;;;;5078872;27;89195;-71
2023/07/12 12:55:30;;;;;;;;;;;;;;;;;;5077041;27;91383;-70
2023/07/12 12:57:58;;;;;;;;;;;;;;;;;;5078244;27;89430;-69
2023/07/12 13:00:25;;;;;;;;;;;;;;;;;;5077613;27;89077;-69
2023/07/12 13:02:53;;;;;;;;;;;;;;;;;;5079856;27;92242;-71
2023/07/12 13:05:18;;;;;;;;;;;;;;;;;;5080084;27;89371;-69
2023/07/12 13:07:44;;;;;;;;;;;;;;;;;;5081026;27;89895;-69
2023/07/12 13:10:16;;;;;;;;;;;;;;;;;;5079723;27;89321;-70
2023/07/12 13:12:42;;;;;;;;;;;;;;;;;;5073168;27;89741;-73
2023/07/12 13:15:11;;;;;;;;;;;;;;;;;;5086215;27;89736;-73
2023/07/12 13:17:37;;;;;;;;;;;;;;;;;;5082046;27;89650;-72
2023/07/12 13:20:02;;;;;;;;;;;;;;;;;;5083905;27;89659;-72
2023/07/12 13:22:27;;;;;;;;;;;;;;;;;;5083550;27;89341;-72
2023/07/12 13:24:53;;;;;;;;;;;;;;;;;;5082050;27;90598;-72
2023/07/12 13:27:54;;;;;;;;;;;;;;;;;;5075127;27;89379;-72
2023/07/12 13:30:19;;;;;;;;;;;;;;;;;;5044844;27;90730;-71
2023/07/12 13:32:45;;;;;;;;;;;;;;;;;;5068165;27;89527;-71
2023/07/12 13:35:15;;;;;;;;;;;;;;;;;;5078650;27;90064;-71
2023/07/12 13:37:40;;;;;;;;;;;;;;;;;;5082574;27;90217;-72
2023/07/12 13:40:10;;;;;;;;;;;;;;;;;;5082392;27;89040;-72
2023/07/12 13:42:35;;;;;;;;;;;;;;;;;;5079507;27;92300;-72
2023/07/12 13:45:00;;;;;;;;;;;;;;;;;;5078497;27;90218;-71
2023/07/12 13:47:26;;;;;;;;;;;;;;;;;;5072944;27;89073;-71
2023/07/12 13:49:52;;;;;;;;;;;;;;;;;;5080049;27;89944;-71
2023/07/12 13:52:19;;;;;;;;;;;;;;;;;;5079412;27;89171;-71
2023/07/12 13:54:45;;;;;;;;;;;;;;;;;;5079316;27;89555;-72
2023/07/12 13:57:11;;;;;;;;;;;;;;;;;;5078824;27;90245;-72
2023/07/12 13:59:39;;;;;;;;;;;;;;;;;;5080114;27;90240;-72
2023/07/12 14:02:20;;;;;;;;;;;;;;;;;;5084151;27;94104;-71
2023/07/12 14:04:45;;;;;;;;;;;;;;;;;;5075691;27;89769;-74
2023/07/12 14:07:11;;;;;;;;;;;;;;;;;;5082422;27;89018;-75
2023/07/12 14:09:37;;;;;;;;;;;;;;;;;;5078844;27;90971;-74
2023/07/12 14:12:03;;;;;;;;;;;;;;;;;;5083566;27;89882;-72
2023/07/12 14:14:28;;;;;;;;;;;;;;;;;;5083431;27;90011;-73
2023/07/12 14:16:53;;;;;;;;;;;;;;;;;;5081254;27;89217;-73
2023/07/12 14:19:18;;;;;;;;;;;;;;;;;;5078539;27;90977;-73
2023/07/12 14:21:43;;;;;;;;;;;;;;;;;;5074015;27;89953;-74
2023/07/12 14:24:10;;;;;;;;;;;;;;;;;;5082366;27;89923;-73
2023/07/12 14:26:35;;;;;;;;;;;;;;;;;;5081153;27;89051;-74
2023/07/12 14:29:01;;;;;;;;;;;;;;;;;;5081569;27;89408;-74
2023/07/12 14:31:26;;;;;;;;;;;;;;;;;;5085457;27;89737;-74
2023/07/12 14:33:52;;;;;;;;;;;;;;;;;;5083393;27;89439;-74
2023/07/12 14:36:19;;;;;;;;;;;;;;;;;;5079228;27;92128;-73
2023/07/12 14:38:45;;;;;;;;;;;;;;;;;;5083582;27;89117;-73
2023/07/12 14:41:21;;;;;;;;;;;;;;;;;;5082066;27;90512;-73
2023/07/12 14:43:46;;;;;;;;;;;;;;;;;;5084435;27;89237;-74
2023/07/12 14:46:12;;;;;;;;;;;;;;;;;;5078699;27;89206;-74
2023/07/12 14:48:37;;;;;;;;;;;;;;;;;;5082456;27;91368;-73
2023/07/12 14:51:04;;;;;;;;;;;;;;;;;;5084963;27;90376;-73
2023/07/12 14:53:29;;;;;;;;;;;;;;;;;;5080476;27;89420;-74
2023/07/12 14:55:54;;;;;;;;;;;;;;;;;;5084973;27;91213;-74
2023/07/12 14:58:20;;;;;;;;;;;;;;;;;;5080407;27;89405;-73
2023/07/12 15:00:45;;;;;;;;;;;;;;;;;;5079801;27;90441;-74
2023/07/12 15:03:21;;;;;;;;;;;;;;;;;;5083824;27;89308;-74
2023/07/12 15:05:47;;;;;;;;;;;;;;;;;;5081131;27;89124;-73
2023/07/12 15:08:27;;;;;;;;;;;;;;;;;;5081850;27;89543;-68
2023/07/12 15:10:53;;;;;;;;;;;;;;;;;;5079242;27;90295;-72
2023/07/12 15:13:19;;;;;;;;;;;;;;;;;;5083758;27;89462;-72
2023/07/12 15:15:44;;;;;;;;;;;;;;;;;;5079730;27;89688;-75
2023/07/12 15:18:11;;;;;;;;;;;;;;;;;;5084157;27;89284;-73
2023/07/12 15:20:37;;;;;;;;;;;;;;;;;;5083726;27;90787;-72
2023/07/12 15:23:03;;;;;;;;;;;;;;;;;;5075651;27;90925;-72
2023/07/12 15:25:29;;;;;;;;;;;;;;;;;;5082096;27;89054;-72
2023/07/12 15:27:56;;;;;;;;;;;;;;;;;;5079713;27;89636;-71
2023/07/12 15:30:23;;;;;;;;;;;;;;;;;;5077121;27;92336;-71
2023/07/12 15:32:48;;;;;;;;;;;;;;;;;;5077343;27;90124;-71
2023/07/12 15:35:24;;;;;;;;;;;;;;;;;;5081675;27;90764;-71
2023/07/12 15:37:51;;;;;;;;;;;;;;;;;;5081250;27;89455;-72
2023/07/12 15:40:17;;;;;;;;;;;;;;;;;;5080139;27;89067;-71
2023/07/12 15:42:43;;;;;;;;;;;;;;;;;;5080999;27;89628;-71
2023/07/12 15:45:12;;;;;;;;;;;;;;;;;;5080487;27;89649;-72
2023/07/12 15:47:38;;;;;;;;;;;;;;;;;;5080389;27;90910;-71
2023/07/12 15:50:04;;;;;;;;;;;;;;;;;;5078655;27;90403;-71
2023/07/12 15:52:29;;;;;;;;;;;;;;;;;;5079327;27;89283;-72
2023/07/12 15:54:54;;;;;;;;;;;;;;;;;;5079418;27;89639;-71
2023/07/12 15:57:20;;;;;;;;;;;;;;;;;;5077188;27;91560;-72
2023/07/12 15:59:46;;;;;;;;;;;;;;;;;;5081243;27;89033;-72
2023/07/12 16:02:14;;;;;;;;;;;;;;;;;;5087156;27;90697;-71
2023/07/12 16:04:39;;;;;;;;;;;;;;;;;;5080072;27;88942;-72
2023/07/12 16:07:05;;;;;;;;;;;;;;;;;;5081584;27;89557;-73
2023/07/12 16:09:31;;;;;;;;;;;;;;;;;;5085047;27;90248;-71
2023/07/12 16:11:56;;;;;;;;;;;;;;;;;;5077315;27;89529;-71
2023/07/12 16:14:23;;;;;;;;;;;;;;;;;;5079611;27;89151;-72
2023/07/12 16:16:48;;;;;;;;;;;;;;;;;;5079269;27;90033;-72
2023/07/12 16:19:15;;;;;;;;;;;;;;;;;;5081055;27;89931;-72
2023/07/12 16:21:40;;;;;;;;;;;;;;;;;;5080934;27;88996;-71
2023/07/12 16:24:08;;;;;;;;;;;;;;;;;;5076382;27;89535;-72
2023/07/12 16:26:34;;;;;;;;;;;;;;;;;;5077337;27;89818;-72
2023/07/12 16:29:00;;;;;;;;;;;;;;;;;;5076070;27;90491;-71
2023/07/12 16:31:28;;;;;;;;;;;;;;;;;;5073444;27;90646;-71
2023/07/12 16:33:55;;;;;;;;;;;;;;;;;;5083222;27;90748;-72
2023/07/12 16:36:20;;;;;;;;;;;;;;;;;;5081859;27;90246;-72
2023/07/12 16:38:46;;;;;;;;;;;;;;;;;;5083835;27;89336;-72
2023/07/12 16:41:12;;;;;;;;;;;;;;;;;;5079900;27;90612;-72
2023/07/12 16:43:37;;;;;;;;;;;;;;;;;;5077299;27;89570;-72
2023/07/12 16:46:03;;;;;;;;;;;;;;;;;;5078746;27;90615;-71
2023/07/12 16:48:28;;;;;;;;;;;;;;;;;;5077464;27;90015;-72
2023/07/12 16:50:54;;;;;;;;;;;;;;;;;;5076267;27;89500;-72
2023/07/12 16:53:31;;;;;;;;;;;;;;;;;;5080322;27;90095;-72
2023/07/12 16:55:56;;;;;;;;;;;;;;;;;;5083546;27;90119;-71
2023/07/12 16:58:23;;;;;;;;;;;;;;;;;;5083014;27;90324;-73
2023/07/12 17:00:49;;;;;;;;;;;;;;;;;;5085464;27;92290;-74